createdAt,value
2018-09-19T00:00:06.013Z,100230.89
2018-09-19T00:02:34.493Z,100229.83
2018-09-19T00:05:03.002Z,100225.99
2018-09-19T00:07:31.523Z,100230.98
2018-09-19T00:10:00.784Z,100228.29
2018-09-19T00:12:29.306Z,100230.03
2018-09-19T00:14:57.958Z,100235.53
2018-09-19T00:17:26.488Z,100236.95
2018-09-19T00:19:55.593Z,100234.06
2018-09-19T00:22:24.157Z,100237.58
2018-09-19T00:24:53.103Z,100242.66
2018-09-19T00:27:21.645Z,100232.48
2018-09-19T00:29:50.606Z,100229.55
2018-09-19T00:32:19.105Z,100233.84
2018-09-19T00:34:47.910Z,100239.84
2018-09-19T00:37:16.577Z,100245.11
2018-09-19T00:39:45.196Z,100244.61
2018-09-19T00:42:13.967Z,100237.39
2018-09-19T00:44:42.539Z,100239.70
2018-09-19T00:47:11.403Z,100241.98
2018-09-19T00:49:39.866Z,100250.22
2018-09-19T00:52:08.391Z,100261.23
2018-09-19T00:54:36.903Z,100256.57
2018-09-19T00:57:05.773Z,100258.66
2018-09-19T00:59:34.405Z,100258.83
2018-09-19T01:02:03.215Z,100263.53
2018-09-19T01:04:31.816Z,100261.58
2018-09-19T01:07:00.409Z,100255.14
2018-09-19T01:09:28.987Z,100255.30
2018-09-19T01:11:57.469Z,100257.39
2018-09-19T01:14:26.119Z,100259.00
2018-09-19T01:16:54.626Z,100260.13
2018-09-19T01:19:23.391Z,100261.06
2018-09-19T01:21:52.005Z,100268.55
2018-09-19T01:24:20.555Z,100271.13
2018-09-19T01:26:49.049Z,100279.95
2018-09-19T01:29:17.650Z,100280.52
2018-09-19T01:31:46.303Z,100285.11
2018-09-19T01:34:14.866Z,100297.25
2018-09-19T01:36:43.664Z,100297.66
2018-09-19T01:39:12.185Z,100293.81
2018-09-19T01:41:40.691Z,100289.27
2018-09-19T01:44:09.686Z,100292.21
2018-09-19T01:46:38.261Z,100294.95
2018-09-19T01:49:06.901Z,100289.55
2018-09-19T01:51:35.582Z,100285.21
2018-09-19T01:54:04.426Z,100289.32
2018-09-19T01:56:33.078Z,100289.23
2018-09-19T01:59:01.543Z,100284.31
2018-09-19T02:01:30.070Z,100281.33
2018-09-19T02:03:58.689Z,100275.42
2018-09-19T02:06:27.257Z,100279.05
2018-09-19T02:08:56.221Z,100287.09
2018-09-19T02:11:24.791Z,100284.86
2018-09-19T02:13:53.360Z,100274.73
2018-09-19T02:16:22.001Z,100283.50
2018-09-19T02:18:50.702Z,100287.22
2018-09-19T02:21:19.197Z,100291.92
2018-09-19T02:23:48.052Z,100292.52
2018-09-19T02:26:16.669Z,100293.38
2018-09-19T02:28:45.618Z,100292.86
2018-09-19T02:31:14.126Z,100299.41
2018-09-19T02:33:42.730Z,100306.44
2018-09-19T02:36:11.315Z,100310.59
2018-09-19T02:38:39.866Z,100309.77
2018-09-19T02:41:08.485Z,100310.83
2018-09-19T02:43:36.997Z,100311.99
2018-09-19T02:46:05.805Z,100306.58
2018-09-19T02:48:34.394Z,100298.16
2018-09-19T02:51:02.929Z,100300.34
2018-09-19T02:53:31.384Z,100299.53
2018-09-19T02:55:59.853Z,100297.09
2018-09-19T02:58:28.531Z,100297.43
2018-09-19T03:00:57.102Z,100292.55
2018-09-19T03:03:25.594Z,100297.81
2018-09-19T03:05:54.258Z,100299.80
2018-09-19T03:08:22.818Z,100295.70
2018-09-19T03:10:51.330Z,100291.11
2018-09-19T03:13:20.149Z,100295.47
2018-09-19T03:15:48.650Z,100300.14
2018-09-19T03:18:17.132Z,100305.04
2018-09-19T03:20:45.823Z,100302.06
2018-09-19T03:23:14.304Z,100302.09
2018-09-19T03:25:43.212Z,100296.92
2018-09-19T03:28:11.692Z,100304.03
2018-09-19T03:30:40.141Z,100298.30
2018-09-19T03:33:08.605Z,100296.40
2018-09-19T03:35:37.115Z,100296.14
2018-09-19T03:38:05.681Z,100296.69
2018-09-19T03:40:34.573Z,100288.73
2018-09-19T03:43:03.486Z,100289.80
2018-09-19T03:45:32.299Z,100290.91
2018-09-19T03:48:00.796Z,100293.89
2018-09-19T03:50:29.429Z,100291.97
2018-09-19T03:52:58.245Z,100291.37
2018-09-19T03:55:26.749Z,100296.30
2018-09-19T03:57:55.260Z,100295.23
2018-09-19T04:00:24.173Z,100292.78
2018-09-19T04:02:52.814Z,100288.41
2018-09-19T04:05:21.450Z,100285.13
2018-09-19T04:07:50.081Z,100288.95
2018-09-19T04:10:18.606Z,100286.73
2018-09-19T04:12:47.317Z,100290.58
2018-09-19T04:15:15.890Z,100292.48
2018-09-19T04:17:44.714Z,100301.46
2018-09-19T04:20:13.164Z,100312.93
2018-09-19T04:22:41.954Z,100320.38
2018-09-19T04:25:10.751Z,100315.71
2018-09-19T04:27:39.206Z,100316.24
2018-09-19T04:30:08.006Z,100313.23
2018-09-19T04:32:36.625Z,100312.97
2018-09-19T04:35:05.290Z,100316.24
2018-09-19T04:37:33.791Z,100313.23
2018-09-19T04:40:02.303Z,100314.34
2018-09-19T04:42:30.961Z,100304.50
2018-09-19T04:44:59.567Z,100303.12
2018-09-19T04:47:27.996Z,100300.92
2018-09-19T04:49:56.475Z,100303.93
2018-09-19T04:52:24.945Z,100307.75
2018-09-19T04:54:53.396Z,100307.77
2018-09-19T04:57:21.922Z,100307.45
2018-09-19T04:59:50.417Z,100306.09
2018-09-19T05:02:19.049Z,100306.40
2018-09-19T05:04:47.537Z,100314.59
2018-09-19T05:07:16.092Z,100311.08
2018-09-19T05:09:44.702Z,100311.63
2018-09-19T05:12:13.226Z,100313.84
2018-09-19T05:14:41.845Z,100320.98
2018-09-19T05:17:11.341Z,100327.85
2018-09-19T05:19:39.848Z,100327.58
2018-09-19T05:22:08.581Z,100323.22
2018-09-19T05:24:37.440Z,100327.86
2018-09-19T05:27:05.903Z,100321.82
2018-09-19T05:29:34.553Z,100321.82
2018-09-19T05:32:03.137Z,100316.34
2018-09-19T05:34:31.667Z,100318.00
2018-09-19T05:37:00.135Z,100319.84
2018-09-19T05:39:28.678Z,100313.00
2018-09-19T05:41:57.197Z,100320.64
2018-09-19T05:44:25.686Z,100321.42
2018-09-19T05:46:54.416Z,100317.03
2018-09-19T05:49:23.186Z,100319.45
2018-09-19T05:51:51.664Z,100319.17
2018-09-19T05:54:20.222Z,100326.06
2018-09-19T05:56:48.685Z,100317.05
2018-09-19T05:59:17.160Z,100317.88
2018-09-19T06:01:45.786Z,100319.80
2018-09-19T06:04:14.401Z,100317.86
2018-09-19T06:06:43.287Z,100323.34
2018-09-19T06:09:12.271Z,100318.39
2018-09-19T06:11:40.908Z,100329.83
2018-09-19T06:14:09.711Z,100324.05
2018-09-19T06:16:38.405Z,100321.22
2018-09-19T06:19:07.052Z,100314.33
2018-09-19T06:21:35.559Z,100311.48
2018-09-19T06:24:04.181Z,100310.00
2018-09-19T06:26:32.661Z,100295.97
2018-09-19T06:29:01.237Z,100299.66
2018-09-19T06:31:30.050Z,100304.45
2018-09-19T06:33:58.550Z,100303.77
2018-09-19T06:36:27.009Z,100302.45
2018-09-19T06:38:56.037Z,100307.47
2018-09-19T06:41:24.570Z,100305.61
2018-09-19T06:43:53.238Z,100305.63
2018-09-19T06:46:21.760Z,100309.62
2018-09-19T06:48:50.267Z,100310.94
2018-09-19T06:51:18.812Z,100307.80
2018-09-19T06:53:47.423Z,100305.29
2018-09-19T06:56:16.048Z,100305.80
2018-09-19T06:58:44.737Z,100302.91
2018-09-19T07:01:13.351Z,100307.31
2018-09-19T07:03:41.921Z,100309.44
2018-09-19T07:06:10.477Z,100317.62
2018-09-19T07:08:39.087Z,100316.28
2018-09-19T07:11:07.661Z,100322.77
2018-09-19T07:13:36.383Z,100311.50
2018-09-19T07:16:04.914Z,100319.08
2018-09-19T07:18:33.411Z,100324.61
2018-09-19T07:21:02.065Z,100324.79
2018-09-19T07:23:30.681Z,100325.52
2018-09-19T07:25:59.263Z,100325.72
2018-09-19T07:28:27.809Z,100324.44
2018-09-19T07:30:56.374Z,100314.31
2018-09-19T07:33:25.011Z,100318.77
2018-09-19T07:35:55.863Z,100311.06
2018-09-19T07:38:24.541Z,100312.48
2018-09-19T07:40:53.074Z,100320.07
2018-09-19T07:43:21.741Z,100313.17
2018-09-19T07:45:50.870Z,100323.28
2018-09-19T07:48:19.468Z,100324.28
2018-09-19T07:50:47.990Z,100319.14
2018-09-19T07:53:16.615Z,100323.84
2018-09-19T07:55:47.349Z,100326.17
2018-09-19T07:58:15.901Z,100331.14
2018-09-19T08:00:44.645Z,100334.63
2018-09-19T08:03:13.139Z,100330.75
2018-09-19T08:05:41.734Z,100327.20
2018-09-19T08:08:10.324Z,100337.08
2018-09-19T08:10:38.779Z,100336.81
2018-09-19T08:13:07.186Z,100335.09
2018-09-19T08:15:35.776Z,100338.14
2018-09-19T08:18:04.515Z,100335.34
2018-09-19T08:20:33.294Z,100341.36
2018-09-19T08:23:02.042Z,100336.20
2018-09-19T08:25:30.922Z,100341.36
2018-09-19T08:28:00.053Z,100346.23
2018-09-19T08:30:28.738Z,100337.61
2018-09-19T08:32:57.366Z,100346.97
2018-09-19T08:35:26.025Z,100335.91
2018-09-19T08:37:54.829Z,100349.01
2018-09-19T08:40:23.471Z,100343.41
2018-09-19T08:42:52.247Z,100345.92
2018-09-19T08:45:20.827Z,100342.02
2018-09-19T08:47:49.498Z,100344.82
2018-09-19T08:50:18.346Z,100339.09
2018-09-19T08:52:47.026Z,100336.41
2018-09-19T08:55:15.757Z,100340.18
2018-09-19T08:57:44.422Z,100341.89
2018-09-19T09:00:13.145Z,100348.84
2018-09-19T09:02:41.970Z,100351.47
2018-09-19T09:05:10.528Z,100341.25
2018-09-19T09:07:39.102Z,100340.84
2018-09-19T09:10:07.841Z,100327.11
2018-09-19T09:12:36.520Z,100326.36
2018-09-19T09:15:05.206Z,100322.09
2018-09-19T09:17:35.843Z,100317.83
2018-09-19T09:20:04.597Z,100324.50
2018-09-19T09:22:33.337Z,100325.98
2018-09-19T09:25:01.931Z,100321.39
2018-09-19T09:27:30.645Z,100318.29
2018-09-19T09:29:59.301Z,100314.02
2018-09-19T09:32:27.900Z,100321.99
2018-09-19T09:34:56.644Z,100316.44
2018-09-19T09:37:25.206Z,100310.09
2018-09-19T09:39:53.771Z,100312.73
2018-09-19T09:42:22.316Z,100306.91
2018-09-19T09:44:51.269Z,100308.19
2018-09-19T09:47:19.945Z,100310.47
2018-09-19T09:49:48.670Z,100301.67
2018-09-19T09:52:17.333Z,100301.77
2018-09-19T09:54:45.881Z,100294.23
2018-09-19T09:57:14.550Z,100290.23
2018-09-19T09:59:43.152Z,100294.92
2018-09-19T10:02:11.806Z,100294.98
2018-09-19T10:04:40.562Z,100287.75
2018-09-19T10:07:09.383Z,100292.25
2018-09-19T10:09:37.954Z,100287.81
2018-09-19T10:12:06.641Z,100293.11
2018-09-19T10:14:35.264Z,100293.75
2018-09-19T10:17:03.834Z,100298.30
2018-09-19T10:19:32.393Z,100279.00
2018-09-19T10:22:01.245Z,100285.39
2018-09-19T10:24:29.893Z,100274.52
2018-09-19T10:26:58.513Z,100287.23
2018-09-19T10:29:27.429Z,100273.42
2018-09-19T10:31:56.136Z,100285.49
2018-09-19T10:34:24.784Z,100283.25
2018-09-19T10:36:53.438Z,100279.00
2018-09-19T10:39:22.098Z,100283.52
2018-09-19T10:41:50.865Z,100285.26
2018-09-19T10:44:19.541Z,100285.95
2018-09-19T10:46:48.332Z,100291.77
2018-09-19T10:49:17.151Z,100288.25
2018-09-19T10:51:46.921Z,100283.28
2018-09-19T10:54:15.576Z,100281.59
2018-09-19T10:56:45.346Z,100279.27
2018-09-19T10:59:13.846Z,100283.14
2018-09-19T11:01:42.635Z,100269.30
2018-09-19T11:04:11.232Z,100271.19
2018-09-19T11:06:39.820Z,100271.00
2018-09-19T11:09:10.287Z,100269.72
2018-09-19T11:11:39.410Z,100263.85
2018-09-19T11:14:08.154Z,100267.11
2018-09-19T11:16:36.738Z,100271.73
2018-09-19T11:19:06.283Z,100261.64
2018-09-19T11:21:34.984Z,100262.64
2018-09-19T11:24:03.766Z,100267.68
2018-09-19T11:26:32.472Z,100265.83
2018-09-19T11:29:01.272Z,100274.37
2018-09-19T11:31:29.894Z,100251.83
2018-09-19T11:33:58.526Z,100261.30
2018-09-19T11:36:27.152Z,100266.27
2018-09-19T11:38:56.019Z,100262.49
2018-09-19T11:41:24.635Z,100263.83
2018-09-19T11:43:53.531Z,100261.16
2018-09-19T11:46:22.152Z,100259.65
2018-09-19T11:48:50.787Z,100269.91
2018-09-19T11:51:19.567Z,100266.93
2018-09-19T11:53:48.154Z,100273.23
2018-09-19T11:56:16.843Z,100264.52
2018-09-19T11:58:46.549Z,100272.19
2018-09-19T12:01:15.759Z,100269.37
2018-09-19T12:03:44.316Z,100267.95
2018-09-19T12:06:12.929Z,100257.69
2018-09-19T12:08:42.510Z,100259.84
2018-09-19T12:11:11.084Z,100262.12
2018-09-19T12:13:39.686Z,100244.14
2018-09-19T12:16:08.232Z,100256.78
2018-09-19T12:18:36.822Z,100251.88
2018-09-19T12:21:05.925Z,100247.98
2018-09-19T12:23:34.531Z,100248.89
2018-09-19T12:26:03.898Z,100252.02
2018-09-19T12:28:32.542Z,100255.25
2018-09-19T12:31:01.150Z,100255.31
2018-09-19T12:33:29.822Z,100257.98
2018-09-19T12:35:58.331Z,100252.46
2018-09-19T12:38:26.918Z,100253.51
2018-09-19T12:40:55.514Z,100248.22
2018-09-19T12:43:24.743Z,100244.58
2018-09-19T12:45:53.341Z,100235.02
2018-09-19T12:48:22.114Z,100238.80
2018-09-19T12:50:50.895Z,100238.50
2018-09-19T12:53:22.814Z,100236.20
2018-09-19T12:55:53.045Z,100236.21
2018-09-19T12:58:21.635Z,100237.10
2018-09-19T13:00:50.462Z,100236.75
2018-09-19T13:03:19.220Z,100238.00
2018-09-19T13:05:47.904Z,100231.98
2018-09-19T13:08:16.633Z,100229.17
2018-09-19T13:10:45.162Z,100214.20
2018-09-19T13:13:13.845Z,100218.16
2018-09-19T13:15:42.737Z,100224.00
2018-09-19T13:18:11.370Z,100220.57
2018-09-19T13:20:39.905Z,100215.60
2018-09-19T13:23:08.610Z,100214.06
2018-09-19T13:25:37.110Z,100216.36
2018-09-19T13:28:05.845Z,100207.86
2018-09-19T13:30:34.387Z,100216.63
2018-09-19T13:33:02.995Z,100214.56
2018-09-19T13:35:31.534Z,100208.96
2018-09-19T13:38:00.181Z,100198.58
2018-09-19T13:40:28.958Z,100211.14
2018-09-19T13:42:57.575Z,100195.89
2018-09-19T13:45:26.176Z,100191.45
2018-09-19T13:47:54.811Z,100197.64
2018-09-19T13:50:40.356Z,100200.83
2018-09-19T13:53:09.365Z,100183.34
2018-09-19T13:55:38.038Z,100186.08
2018-09-19T13:58:06.579Z,100189.71
2018-09-19T14:00:35.338Z,100187.09
2018-09-19T14:03:04.026Z,100185.19
2018-09-19T14:05:32.746Z,100193.61
2018-09-19T14:08:01.385Z,100193.77
2018-09-19T14:10:29.943Z,100190.34
2018-09-19T14:12:58.545Z,100172.25
2018-09-19T14:15:27.206Z,100179.66
2018-09-19T14:17:55.759Z,100184.95
2018-09-19T14:20:24.547Z,100185.75
2018-09-19T14:22:53.113Z,100185.98
2018-09-19T14:25:21.662Z,100172.37
2018-09-19T14:27:50.179Z,100174.27
2018-09-19T14:30:18.937Z,100160.77
2018-09-19T14:32:47.513Z,100166.05
2018-09-19T14:35:17.251Z,100164.05
2018-09-19T14:37:45.970Z,100167.22
2018-09-19T14:40:14.559Z,100168.98
2018-09-19T14:42:43.218Z,100171.86
2018-09-19T14:45:11.943Z,100171.84
2018-09-19T14:47:40.676Z,100170.23
2018-09-19T14:50:09.486Z,100169.86
2018-09-19T14:52:38.066Z,100158.01
2018-09-19T14:55:06.613Z,100164.84
2018-09-19T14:57:35.362Z,100160.64
2018-09-19T15:00:04.087Z,100148.42
2018-09-19T15:02:32.706Z,100161.50
2018-09-19T15:05:01.370Z,100156.40
2018-09-19T15:07:29.889Z,100160.62
2018-09-19T15:09:58.536Z,100161.16
2018-09-19T15:12:27.146Z,100155.36
2018-09-19T15:14:55.706Z,100151.12
2018-09-19T15:17:24.362Z,100150.52
2018-09-19T15:19:52.989Z,100160.41
2018-09-19T15:22:21.704Z,100161.09
2018-09-19T15:24:50.396Z,100163.91
2018-09-19T15:27:19.230Z,100143.78
2018-09-19T15:29:47.916Z,100157.72
2018-09-19T15:32:16.711Z,100151.55
2018-09-19T15:34:45.294Z,100149.61
2018-09-19T15:37:13.946Z,100161.92
2018-09-19T15:39:42.513Z,100161.11
2018-09-19T15:42:11.088Z,100162.58
2018-09-19T15:44:39.671Z,100161.14
2018-09-19T15:47:08.353Z,100152.10
2018-09-19T15:49:36.863Z,100164.36
2018-09-19T15:52:05.537Z,100159.77
2018-09-19T15:54:34.103Z,100159.97
2018-09-19T15:57:02.766Z,100164.80
2018-09-19T15:59:31.532Z,100160.83
2018-09-19T16:02:00.061Z,100165.11
2018-09-19T16:04:28.610Z,100156.42
2018-09-19T16:06:57.308Z,100151.30
2018-09-19T16:09:26.019Z,100166.14
2018-09-19T16:14:28.045Z,100173.24
2018-09-19T16:16:56.626Z,100167.19
2018-09-19T16:19:25.292Z,100169.74
2018-09-19T16:21:53.802Z,100171.16
2018-09-19T16:24:22.399Z,100174.24
2018-09-19T16:26:51.066Z,100177.30
2018-09-19T16:29:19.666Z,100177.77
2018-09-19T16:31:48.326Z,100178.70
2018-09-19T16:34:16.812Z,100184.94
2018-09-19T16:36:45.526Z,100176.80
2018-09-19T16:39:14.225Z,100182.64
2018-09-19T16:41:43.305Z,100180.22
2018-09-19T16:44:11.977Z,100184.67
2018-09-19T16:46:41.189Z,100185.99
2018-09-19T16:49:10.529Z,100195.03
2018-09-19T16:51:39.145Z,100201.97
2018-09-19T16:54:08.027Z,100195.23
2018-09-19T16:56:36.594Z,100195.95
2018-09-19T16:59:05.418Z,100201.02
2018-09-19T17:01:33.972Z,100196.25
2018-09-19T17:04:02.562Z,100196.17
2018-09-19T17:06:31.255Z,100208.34
2018-09-19T17:08:59.964Z,100201.73
2018-09-19T17:11:28.576Z,100209.27
2018-09-19T17:13:57.170Z,100205.55
2018-09-19T17:16:25.657Z,100212.23
2018-09-19T17:18:54.436Z,100209.27
2018-09-19T17:21:23.129Z,100223.27
2018-09-19T17:23:52.013Z,100229.66
2018-09-19T17:26:20.708Z,100229.63
2018-09-19T17:28:49.368Z,100235.95
2018-09-19T17:31:17.913Z,100229.95
2018-09-19T17:33:46.655Z,100231.63
2018-09-19T17:36:15.308Z,100241.29
2018-09-19T17:38:43.850Z,100240.51
2018-09-19T17:41:12.483Z,100246.20
2018-09-19T17:43:41.188Z,100242.88
2018-09-19T17:46:09.749Z,100246.38
2018-09-19T17:48:38.354Z,100252.66
2018-09-19T17:51:07.115Z,100250.36
2018-09-19T17:53:35.771Z,100254.52
2018-09-19T17:56:04.366Z,100262.06
2018-09-19T17:58:32.939Z,100256.74
2018-09-19T18:01:01.537Z,100260.83
2018-09-19T18:03:30.131Z,100263.22
2018-09-19T18:05:58.693Z,100266.48
2018-09-19T18:08:27.251Z,100275.61
2018-09-19T18:10:55.794Z,100276.21
2018-09-19T18:13:24.353Z,100270.98
2018-09-19T18:15:52.935Z,100278.85
2018-09-19T18:18:21.689Z,100281.75
2018-09-19T18:20:50.459Z,100282.08
2018-09-19T18:23:19.118Z,100286.24
2018-09-19T18:25:47.742Z,100291.55
2018-09-19T18:28:16.400Z,100295.25
2018-09-19T18:30:44.942Z,100298.88
2018-09-19T18:33:13.650Z,100296.77
2018-09-19T18:35:42.390Z,100301.39
2018-09-19T18:38:10.897Z,100301.84
2018-09-19T18:40:39.555Z,100301.58
2018-09-19T18:43:08.306Z,100303.17
2018-09-19T18:45:36.862Z,100311.47
2018-09-19T18:48:05.497Z,100316.50
2018-09-19T18:50:34.156Z,100318.53
2018-09-19T18:53:02.718Z,100318.02
2018-09-19T18:55:31.273Z,100320.06
2018-09-19T18:57:59.816Z,100326.05
2018-09-19T19:00:28.361Z,100325.30
2018-09-19T19:02:56.882Z,100329.43
2018-09-19T19:05:25.434Z,100333.02
2018-09-19T19:07:54.079Z,100331.92
2018-09-19T19:10:23.559Z,100335.31
2018-09-19T19:12:52.305Z,100328.07
2018-09-19T19:15:20.930Z,100324.54
2018-09-19T19:17:49.490Z,100339.83
2018-09-19T19:20:18.166Z,100337.20
2018-09-19T19:22:46.718Z,100341.73
2018-09-19T19:25:15.693Z,100346.87
2018-09-19T19:27:44.233Z,100342.66
2018-09-19T19:30:12.738Z,100348.28
2018-09-19T19:32:42.338Z,100348.89
2018-09-19T19:35:11.936Z,100357.09
2018-09-19T19:37:40.975Z,100356.60
2018-09-19T19:40:09.702Z,100360.84
2018-09-19T19:42:38.266Z,100366.79
2018-09-19T19:45:07.022Z,100369.86
2018-09-19T19:47:37.742Z,100370.42
2018-09-19T19:50:16.306Z,100366.02
2018-09-19T19:52:44.781Z,100370.34
2018-09-19T19:55:15.619Z,100365.45
2018-09-19T20:00:26.054Z,100379.41
2018-09-19T20:02:54.469Z,100375.08
2018-09-19T20:05:39.062Z,100380.70
2018-09-19T20:08:08.822Z,100382.41
2018-09-19T20:10:37.584Z,100385.69
2018-09-19T20:13:06.778Z,100387.09
2018-09-19T20:15:35.218Z,100388.77
2018-09-19T20:18:03.932Z,100387.78
2018-09-19T20:20:32.565Z,100395.08
2018-09-19T20:23:01.196Z,100389.34
2018-09-19T20:25:29.845Z,100385.10
2018-09-19T20:28:02.651Z,100397.58
2018-09-19T20:30:31.246Z,100395.90
2018-09-19T20:32:59.797Z,100394.90
2018-09-19T20:35:28.463Z,100393.91
2018-09-19T20:37:57.047Z,100388.08
2018-09-19T20:40:25.711Z,100396.41
2018-09-19T20:43:07.474Z,100400.94
2018-09-19T20:45:36.028Z,100400.80
2018-09-19T20:48:04.974Z,100402.30
2018-09-19T20:50:33.865Z,100395.71
2018-09-19T20:53:02.372Z,100408.32
2018-09-19T20:55:30.889Z,100403.53
2018-09-19T20:57:59.658Z,100411.73
2018-09-19T21:00:28.063Z,100406.98
2018-09-19T21:02:56.618Z,100413.19
2018-09-19T21:05:25.026Z,100404.67
2018-09-19T21:07:53.472Z,100411.41
2018-09-19T21:10:21.914Z,100417.30
2018-09-19T21:12:50.349Z,100425.55
2018-09-19T21:15:18.786Z,100432.14
2018-09-19T21:17:47.247Z,100431.86
2018-09-19T21:20:15.669Z,100441.77
2018-09-19T21:22:45.270Z,100433.45
2018-09-19T21:25:13.656Z,100437.33
2018-09-19T21:27:42.136Z,100436.23
2018-09-19T21:30:10.698Z,100440.87
2018-09-19T21:32:39.156Z,100445.73
2018-09-19T21:35:07.594Z,100445.77
2018-09-19T21:37:36.075Z,100443.54
2018-09-19T21:40:04.685Z,100443.50
2018-09-19T21:42:33.139Z,100452.05
2018-09-19T21:45:06.727Z,100448.24
2018-09-19T21:47:35.149Z,100452.61
2018-09-19T21:50:03.629Z,100449.31
2018-09-19T21:52:32.085Z,100449.62
2018-09-19T21:55:00.693Z,100452.17
2018-09-19T21:57:29.101Z,100449.05
2018-09-19T21:59:57.541Z,100450.44
2018-09-19T22:02:25.957Z,100448.00
2018-09-19T22:04:54.352Z,100450.09
2018-09-19T22:07:22.801Z,100446.56
2018-09-19T22:09:51.210Z,100445.53
2018-09-19T22:12:19.646Z,100439.80
2018-09-19T22:14:48.068Z,100449.99
2018-09-19T22:17:16.531Z,100452.53
2018-09-19T22:19:45.437Z,100447.56
2018-09-19T22:22:13.902Z,100447.63
2018-09-19T22:24:42.297Z,100450.84
2018-09-19T22:27:10.706Z,100455.11
2018-09-19T22:29:39.244Z,100447.05
2018-09-19T22:32:07.693Z,100449.03
2018-09-19T22:34:36.142Z,100446.11
2018-09-19T22:37:04.597Z,100440.27
2018-09-19T22:39:33.383Z,100440.23
2018-09-19T22:42:01.894Z,100442.98
2018-09-19T22:44:30.293Z,100440.02
2018-09-19T22:46:58.705Z,100440.66
2018-09-19T22:49:27.102Z,100437.48
2018-09-19T22:51:55.528Z,100434.04
2018-09-19T22:54:23.977Z,100434.14
2018-09-19T22:56:52.365Z,100430.91
2018-09-19T22:59:20.777Z,100424.87
2018-09-19T23:01:49.231Z,100417.58
2018-09-19T23:04:18.447Z,100425.59
2018-09-19T23:06:46.793Z,100427.55
2018-09-19T23:09:15.221Z,100432.42
2018-09-19T23:11:43.730Z,100429.98
2018-09-19T23:14:12.166Z,100434.57
2018-09-19T23:16:40.663Z,100423.37
2018-09-19T23:19:09.126Z,100428.17
2018-09-19T23:21:37.556Z,100435.64
2018-09-19T23:24:06.002Z,100426.63
2018-09-19T23:26:34.386Z,100426.78
2018-09-19T23:29:02.809Z,100420.30
2018-09-19T23:31:31.290Z,100419.49
2018-09-19T23:33:59.713Z,100416.19
2018-09-19T23:36:28.136Z,100417.55
2018-09-19T23:38:56.586Z,100416.16
2018-09-19T23:41:24.989Z,100416.08
2018-09-19T23:43:53.409Z,100417.70
2018-09-19T23:46:21.809Z,100413.39
2018-09-19T23:48:50.230Z,100406.81
2018-09-19T23:51:18.617Z,100403.09
2018-09-19T23:53:47.100Z,100399.28
2018-09-19T23:56:16.349Z,100396.86
2018-09-19T23:58:44.773Z,100391.47
